Anderson Municipal-Darlington Field (AID)

 

Airport Diagram
Current Weather/Forecast (VFR Conditions)
METAR KAID 071335Z AUTO 00000KT 10SM CLR 07/06 A3005 RMK AO2 T00660058
TAF

Airport Information

All Charts
General
Chart Name View
AIRPORT DIAGRAM
TAKEOFF MINIMUMS
ALTERNATE MINIMUMS

Approaches
Chart Name Download
ILS OR LOC RWY 30
RNAV (GPS) RWY 30
NDB RWY 30


Airport Statistics
Departures Arrivals Local
All Collected Stats since June 2016: 18 17 1
2021 Stats: 1 2 0
May Stats: 0 1 0

Inbound Traffic (Arrivals) - 0

No inbound traffic.


Outbound Traffic (Departures) - 0

No outbound traffic.


Local Traffic (Pattern) - 0

No local traffic.